Time;durP1;ratioP1;P1;durP2;ratioP2;P2;SDS_P1;SDS_P2;PMS_P1;PMS_P2;Temp;Humidity;BMP_temperature;BMP_pressure;BME280_temperature;BME280_humidity;BME280_pressure;Samples;Min_cycle;Max_cycle;Signal;HPM_P1;HPM_P2
2022/07/17 00:00:32;;;;;;;131.48;119.72;;;16.20;69.30;;;;;;5032832;28;20097;-72
2022/07/17 00:02:59;;;;;;;131.57;119.80;;;16.20;69.30;;;;;;5031718;28;20082;-72
2022/07/17 00:05:26;;;;;;;131.13;119.35;;;16.10;69.40;;;;;;5032893;28;20060;-72
2022/07/17 00:07:54;;;;;;;132.73;120.82;;;16.10;69.50;;;;;;5031523;28;20053;-72
2022/07/17 00:10:21;;;;;;;130.23;118.50;;;16.10;69.50;;;;;;5011154;28;20042;-72
2022/07/17 00:12:47;;;;;;;131.20;119.50;;;16.00;69.50;;;;;;5022062;28;20057;-72
2022/07/17 00:15:16;;;;;;;130.98;119.18;;;16.00;69.70;;;;;;5031707;28;20125;-71
2022/07/17 00:17:43;;;;;;;134.90;122.60;;;15.90;70.10;;;;;;5030855;28;20089;-72
2022/07/17 00:20:11;;;;;;;130.77;118.88;;;15.90;70.10;;;;;;5032619;28;20049;-72
2022/07/17 00:22:38;;;;;;;132.05;119.97;;;15.80;70.00;;;;;;5031696;28;20058;-72
2022/07/17 00:25:06;;;;;;;132.73;120.32;;;15.80;70.90;;;;;;5031512;28;20046;-72
2022/07/17 00:27:33;;;;;;;131.45;119.45;;;15.70;71.50;;;;;;5031873;28;20050;-72
2022/07/17 00:30:00;;;;;;;130.93;118.72;;;15.70;71.50;;;;;;5024261;28;20081;-72
2022/07/17 00:35:31;;;;;;;132.23;120.32;;;15.60;71.30;;;;;;4991324;28;20065;-72
2022/07/17 00:37:58;;;;;;;131.40;119.70;;;15.50;71.20;;;;;;4992062;28;20108;-72
2022/07/17 00:40:25;;;;;;;133.30;121.40;;;15.50;71.70;;;;;;4992887;28;20054;-71
2022/07/17 00:42:53;;;;;;;133.82;121.85;;;15.40;71.80;;;;;;4992922;28;20047;-72
2022/07/17 00:45:24;;;;;;;133.38;121.50;;;15.40;71.80;;;;;;4992792;28;20509;-71
2022/07/17 00:47:55;;;;;;;133.85;121.85;;;15.40;72.10;;;;;;5011098;28;20057;-72
2022/07/17 00:50:23;;;;;;;131.48;119.78;;;15.30;72.40;;;;;;5002348;28;20086;-72
2022/07/17 00:52:50;;;;;;;133.55;121.75;;;15.30;72.60;;;;;;5010078;28;20513;-72
2022/07/17 00:55:18;;;;;;;132.68;120.78;;;15.30;72.70;;;;;;4995573;28;20043;-72
2022/07/17 00:57:47;;;;;;;134.02;120.65;;;15.20;72.80;;;;;;5011055;28;20046;-72
2022/07/17 01:00:15;;;;;;;131.82;119.15;;;15.20;73.40;;;;;;4995067;28;20541;-72
2022/07/17 01:02:46;;;;;;;131.82;120.10;;;15.10;73.60;;;;;;5028227;28;20054;-72
2022/07/17 01:05:15;;;;;;;132.68;120.68;;;15.10;73.50;;;;;;5024914;28;20053;-72
2022/07/17 01:07:42;;;;;;;131.65;119.85;;;15.10;73.80;;;;;;5004197;28;20086;-72
2022/07/17 01:10:10;;;;;;;131.10;118.97;;;15.00;73.80;;;;;;4994650;28;20050;-72
2022/07/17 01:12:37;;;;;;;132.93;121.03;;;15.00;73.90;;;;;;4994579;28;20134;-72
2022/07/17 01:15:05;;;;;;;131.18;119.47;;;14.90;73.90;;;;;;5011384;28;20142;-72
2022/07/17 01:17:32;;;;;;;131.38;119.50;;;14.90;73.90;;;;;;4995959;28;20055;-72
2022/07/17 01:19:59;;;;;;;130.25;118.57;;;14.90;74.00;;;;;;4994936;28;20051;-71
2022/07/17 01:22:27;;;;;;;131.70;119.65;;;14.80;74.20;;;;;;4995864;28;20141;-72
2022/07/17 01:24:54;;;;;;;129.60;117.82;;;14.80;74.30;;;;;;5025795;28;20153;-71
2022/07/17 01:27:21;;;;;;;130.80;118.97;;;14.70;74.10;;;;;;4995633;28;20848;-71
2022/07/17 01:29:48;;;;;;;129.82;118.03;;;14.70;74.00;;;;;;4996093;28;20051;-72
2022/07/17 01:32:15;;;;;;;130.20;118.47;;;14.60;74.20;;;;;;5019405;28;20051;-71
2022/07/17 01:34:42;;;;;;;130.95;117.63;;;14.60;74.80;;;;;;4994460;28;20121;-72
2022/07/17 01:37:09;;;;;;;131.35;119.38;;;14.60;75.20;;;;;;5019236;28;20059;-72
2022/07/17 01:42:28;;;;;;;130.48;118.57;;;14.50;75.80;;;;;;5015785;28;20651;-72
2022/07/17 01:44:56;;;;;;;130.52;118.63;;;14.50;75.90;;;;;;5027686;28;20053;-72
2022/07/17 01:47:24;;;;;;;130.65;118.65;;;14.40;76.00;;;;;;5000105;28;20058;-72
2022/07/17 01:49:54;;;;;;;130.15;118.28;;;14.40;76.10;;;;;;4995743;28;20134;-72
2022/07/17 01:52:21;;;;;;;129.82;117.93;;;14.40;76.00;;;;;;4995504;28;20054;-72
2022/07/17 01:54:50;;;;;;;130.40;118.28;;;14.30;76.00;;;;;;4994657;28;20051;-72
2022/07/17 01:57:18;;;;;;;137.02;124.68;;;14.20;76.10;;;;;;4992824;28;21659;-72
2022/07/17 01:59:45;;;;;;;129.20;117.40;;;14.30;76.40;;;;;;4994205;28;20055;-72
2022/07/17 02:02:15;;;;;;;130.02;118.13;;;14.20;76.70;;;;;;4995390;28;20054;-71
2022/07/17 02:04:42;;;;;;;130.07;117.97;;;14.20;77.00;;;;;;4988291;28;20061;-71
2022/07/17 02:07:09;;;;;;;132.93;120.82;;;14.10;77.20;;;;;;5010044;28;20059;-72
2022/07/17 02:09:37;;;;;;;131.30;119.28;;;14.10;77.30;;;;;;4994039;28;20526;-71
2022/07/17 02:12:06;;;;;;;129.60;117.80;;;14.10;77.60;;;;;;5010727;28;20137;-72
2022/07/17 02:14:34;;;;;;;130.15;118.10;;;14.00;78.00;;;;;;4995413;28;20050;-71
2022/07/17 02:17:01;;;;;;;130.32;118.43;;;14.00;78.60;;;;;;5009999;28;20048;-72
2022/07/17 02:19:28;;;;;;;130.10;117.82;;;14.00;79.00;;;;;;4993775;28;20532;-72
2022/07/17 02:21:55;;;;;;;128.77;116.97;;;13.90;79.10;;;;;;4994859;28;20058;-72
2022/07/17 02:24:22;;;;;;;128.55;116.65;;;13.90;79.60;;;;;;4994057;28;20053;-72
2022/07/17 02:26:49;;;;;;;130.05;117.95;;;13.80;80.10;;;;;;4993802;28;20505;-72
2022/07/17 02:29:17;;;;;;;129.32;117.43;;;13.80;80.30;;;;;;4994826;28;20323;-72
2022/07/17 02:31:44;;;;;;;129.63;117.50;;;13.80;80.50;;;;;;4993558;28;20054;-72
2022/07/17 02:34:11;;;;;;;129.50;117.50;;;13.80;80.50;;;;;;4994251;28;20161;-72
2022/07/17 02:36:38;;;;;;;129.13;117.10;;;13.70;80.50;;;;;;4995025;28;20505;-72
2022/07/17 02:39:06;;;;;;;129.00;116.90;;;13.70;80.90;;;;;;4993411;28;20070;-71
2022/07/17 02:41:33;;;;;;;128.80;116.80;;;13.70;81.10;;;;;;4989768;28;20510;-72
2022/07/17 02:44:00;;;;;;;127.97;116.20;;;13.70;81.50;;;;;;5026081;28;20091;-72
2022/07/17 02:46:28;;;;;;;129.10;117.20;;;13.60;81.60;;;;;;4994810;28;20059;-72
2022/07/17 02:48:55;;;;;;;129.05;117.15;;;13.60;81.40;;;;;;4994587;28;20050;-72
2022/07/17 02:51:21;;;;;;;128.90;116.97;;;13.60;81.40;;;;;;4996539;28;20506;-72
2022/07/17 02:53:48;;;;;;;128.90;116.75;;;13.60;81.50;;;;;;4993947;28;20055;-71
2022/07/17 02:56:15;;;;;;;128.90;116.80;;;13.50;81.70;;;;;;4993882;28;20141;-71
2022/07/17 02:58:42;;;;;;;127.70;115.90;;;13.50;82.20;;;;;;4992470;28;20047;-72
2022/07/17 03:01:09;;;;;;;128.65;116.70;;;13.50;82.40;;;;;;4993944;28;20086;-71
2022/07/17 03:03:38;;;;;;;134.98;122.57;;;13.40;82.40;;;;;;4992421;28;20146;-72
2022/07/17 03:06:05;;;;;;;126.80;114.80;;;13.40;82.70;;;;;;4993361;28;20133;-72
2022/07/17 03:08:31;;;;;;;127.40;115.50;;;13.30;82.60;;;;;;4993077;28;20051;-72
2022/07/17 03:10:59;;;;;;;128.40;116.32;;;13.30;82.50;;;;;;4992168;28;20146;-71
2022/07/17 03:13:25;;;;;;;129.65;117.25;;;13.30;82.30;;;;;;4993861;28;20059;-72
2022/07/17 03:15:52;;;;;;;127.70;115.82;;;13.30;82.30;;;;;;4992520;28;20133;-71
2022/07/17 03:18:19;;;;;;;127.45;115.40;;;13.20;82.20;;;;;;5000690;28;20046;-72
2022/07/17 03:20:48;;;;;;;129.15;117.15;;;13.30;82.40;;;;;;5008774;28;20061;-72
2022/07/17 03:23:15;;;;;;;126.85;115.05;;;13.30;83.30;;;;;;4993084;28;20101;-71
2022/07/17 03:25:42;;;;;;;127.53;115.57;;;13.20;83.30;;;;;;4993718;28;20061;-71
2022/07/17 03:28:09;;;;;;;128.32;116.22;;;13.20;83.50;;;;;;4993713;28;20142;-71
2022/07/17 03:30:36;;;;;;;126.78;114.88;;;13.10;83.40;;;;;;5022513;28;20129;-71
2022/07/17 03:33:03;;;;;;;126.53;114.55;;;13.10;83.20;;;;;;4993485;28;20160;-71
2022/07/17 03:35:31;;;;;;;125.78;113.97;;;13.10;83.10;;;;;;4984844;28;20055;-71
2022/07/17 03:37:59;;;;;;;126.80;114.70;;;13.10;83.20;;;;;;4991125;28;20258;-72
2022/07/17 03:40:26;;;;;;;125.78;113.95;;;13.10;83.30;;;;;;5008800;28;20100;-72
2022/07/17 03:42:53;;;;;;;126.20;114.35;;;13.00;83.10;;;;;;4992833;28;20054;-71
2022/07/17 03:45:21;;;;;;;125.72;113.93;;;13.00;83.10;;;;;;5008966;28;20130;-71
2022/07/17 03:47:48;;;;;;;126.20;114.30;;;13.00;83.10;;;;;;4992051;28;20145;-72
2022/07/17 03:50:15;;;;;;;125.70;113.80;;;13.00;83.30;;;;;;4993646;28;20054;-72
2022/07/17 03:52:41;;;;;;;126.82;114.93;;;13.00;83.60;;;;;;4982090;28;20084;-71
2022/07/17 03:55:10;;;;;;;126.47;114.53;;;13.00;84.00;;;;;;4993153;28;20165;-72
2022/07/17 03:57:37;;;;;;;126.95;114.93;;;12.90;84.20;;;;;;4993027;28;20130;-72
2022/07/17 04:00:05;;;;;;;128.63;116.47;;;12.90;84.30;;;;;;5008519;28;20134;-71
2022/07/17 04:02:38;;;;;;;127.38;115.28;;;12.90;84.50;;;;;;4993686;28;20078;-71
2022/07/17 04:05:09;;;;;;;128.70;116.40;;;12.90;84.60;;;;;;4993692;28;20054;-71
2022/07/17 04:07:36;;;;;;;128.02;116.03;;;12.90;84.70;;;;;;4992319;28;20050;-71
2022/07/17 04:10:03;;;;;;;126.82;114.85;;;12.80;84.80;;;;;;4991313;28;20149;-71
2022/07/17 04:12:32;;;;;;;125.28;113.47;;;12.80;84.50;;;;;;4993227;28;20055;-71
2022/07/17 04:14:59;;;;;;;125.25;113.35;;;12.70;84.70;;;;;;5008584;28;20177;-72
2022/07/17 04:17:27;;;;;;;125.35;113.25;;;12.70;85.40;;;;;;4992066;28;20493;-71
2022/07/17 04:19:54;;;;;;;125.75;113.75;;;12.70;86.00;;;;;;4993164;28;20055;-72
2022/07/17 04:22:21;;;;;;;126.70;114.45;;;12.60;86.60;;;;;;4992160;28;20505;-72
2022/07/17 04:24:48;;;;;;;126.43;114.25;;;12.70;87.20;;;;;;4993276;28;20055;-72
2022/07/17 04:27:15;;;;;;;127.18;115.10;;;12.70;87.40;;;;;;4991526;28;20051;-72
2022/07/17 04:29:43;;;;;;;127.40;115.22;;;12.60;87.30;;;;;;4993534;28;20133;-71
2022/07/17 04:32:11;;;;;;;127.25;114.97;;;12.60;88.10;;;;;;4984856;28;20051;-71
2022/07/17 04:34:38;;;;;;;127.60;115.38;;;12.60;88.80;;;;;;4987149;28;20061;-71
2022/07/17 04:37:05;;;;;;;129.35;116.95;;;12.60;89.60;;;;;;4988196;28;20055;-72
2022/07/17 04:39:32;;;;;;;127.03;114.82;;;12.60;90.00;;;;;;5018822;28;20062;-71
2022/07/17 04:41:59;;;;;;;127.05;114.75;;;12.70;90.30;;;;;;4995669;28;20117;-71
2022/07/17 04:44:26;;;;;;;128.55;116.18;;;12.60;90.50;;;;;;5018525;28;20137;-71
2022/07/17 04:46:55;;;;;;;128.32;115.82;;;12.70;90.80;;;;;;4992690;28;20121;-71
2022/07/17 04:49:22;;;;;;;126.63;114.22;;;12.70;91.10;;;;;;5024573;28;20062;-71
2022/07/17 04:51:49;;;;;;;126.88;114.30;;;12.60;90.90;;;;;;4993030;28;20047;-71
2022/07/17 04:54:16;;;;;;;132.73;119.47;;;12.70;90.90;;;;;;5031197;22;20035;-71
2022/07/17 04:56:43;;;;;;;123.65;111.55;;;12.70;91.20;;;;;;5052275;28;20056;-71
2022/07/17 04:59:10;;;;;;;123.40;111.40;;;12.70;91.50;;;;;;5050998;28;20050;-71
2022/07/17 05:01:37;;;;;;;123.80;111.70;;;12.70;91.80;;;;;;5050383;28;20056;-71
2022/07/17 05:04:05;;;;;;;126.32;114.03;;;12.70;92.40;;;;;;5052232;28;20049;-71
2022/07/17 05:06:32;;;;;;;125.10;113.00;;;12.70;92.50;;;;;;5067638;28;20050;-71
2022/07/17 05:08:59;;;;;;;125.95;113.55;;;12.70;92.70;;;;;;5050775;28;20155;-71
2022/07/17 05:11:26;;;;;;;125.32;112.93;;;12.70;92.90;;;;;;5052190;28;20053;-71
2022/07/17 05:13:54;;;;;;;123.93;111.93;;;12.70;93.20;;;;;;5051509;28;20052;-71
2022/07/17 05:16:21;;;;;;;124.35;112.22;;;12.70;93.40;;;;;;5063825;28;20042;-72
2022/07/17 05:18:48;;;;;;;125.43;113.20;;;12.70;93.50;;;;;;5046560;28;20141;-71
2022/07/17 05:21:16;;;;;;;125.32;112.70;;;12.70;93.70;;;;;;5045310;28;20144;-71
2022/07/17 05:23:43;;;;;;;125.50;113.00;;;12.70;94.30;;;;;;5051571;28;20096;-71
2022/07/17 05:26:10;;;;;;;123.82;111.35;;;12.80;94.30;;;;;;5051600;28;20102;-71
2022/07/17 05:28:37;;;;;;;123.85;111.40;;;12.80;94.40;;;;;;5063311;28;20052;-71
2022/07/17 05:31:04;;;;;;;125.25;112.75;;;12.80;94.70;;;;;;5039065;28;20097;-71
2022/07/17 05:33:30;;;;;;;124.90;112.28;;;12.80;94.70;;;;;;5049729;28;20496;-71
2022/07/17 05:35:57;;;;;;;123.90;111.65;;;12.90;94.90;;;;;;5043340;28;20049;-71
2022/07/17 05:38:26;;;;;;;122.40;110.13;;;12.90;95.00;;;;;;5065983;28;20865;-72
2022/07/17 05:40:53;;;;;;;126.20;113.35;;;12.90;95.00;;;;;;5043424;28;20141;-71
2022/07/17 05:43:20;;;;;;;123.95;111.45;;;12.90;95.10;;;;;;5043741;28;20073;-71
2022/07/17 05:45:47;;;;;;;124.35;112.15;;;12.90;95.20;;;;;;5042493;28;20042;-71
2022/07/17 05:48:14;;;;;;;122.18;110.28;;;13.00;95.20;;;;;;5059034;28;20042;-71
2022/07/17 05:50:41;;;;;;;124.30;111.97;;;13.00;95.30;;;;;;5044451;28;20513;-71
2022/07/17 05:53:08;;;;;;;125.50;112.93;;;13.00;95.40;;;;;;5064968;28;20530;-72
2022/07/17 05:55:36;;;;;;;124.68;112.38;;;13.00;95.40;;;;;;5051593;28;20504;-71
2022/07/17 05:58:04;;;;;;;125.72;113.32;;;13.00;95.50;;;;;;5051295;28;20059;-71
2022/07/17 06:00:31;;;;;;;124.18;112.10;;;13.10;95.60;;;;;;5049651;28;20060;-72
2022/07/17 06:02:58;;;;;;;126.72;114.35;;;13.10;95.80;;;;;;5031969;28;20057;-71
2022/07/17 06:05:26;;;;;;;122.95;110.90;;;13.10;95.90;;;;;;5050806;28;20144;-71
2022/07/17 06:07:54;;;;;;;124.72;112.32;;;13.20;96.00;;;;;;5050212;28;20525;-72
2022/07/17 06:10:21;;;;;;;122.72;110.57;;;13.20;96.00;;;;;;5051241;28;20053;-71
2022/07/17 06:12:52;;;;;;;123.72;111.53;;;13.20;96.10;;;;;;5049104;28;20045;-72
2022/07/17 06:15:19;;;;;;;122.78;110.50;;;13.30;96.20;;;;;;5034753;28;20108;-71
2022/07/17 06:17:47;;;;;;;122.80;110.68;;;13.30;96.00;;;;;;5050093;28;21737;-71
2022/07/17 06:20:15;;;;;;;125.22;112.65;;;13.30;96.00;;;;;;5050263;28;20049;-71
2022/07/17 06:22:42;;;;;;;124.03;111.63;;;13.30;96.00;;;;;;5049375;28;20141;-71
2022/07/17 06:25:10;;;;;;;123.72;111.47;;;13.40;96.20;;;;;;5048666;28;20045;-72
2022/07/17 06:27:39;;;;;;;123.53;111.47;;;13.50;96.20;;;;;;5050054;28;20054;-71
2022/07/17 06:30:09;;;;;;;124.35;111.50;;;13.50;96.40;;;;;;5050389;28;20424;-72
2022/07/17 06:32:36;;;;;;;122.70;110.43;;;13.50;96.30;;;;;;5050207;28;20510;-72
2022/07/17 06:35:03;;;;;;;123.75;111.45;;;13.60;96.50;;;;;;5051356;28;20136;-72
2022/07/17 06:37:30;;;;;;;124.45;112.22;;;13.70;96.40;;;;;;5048423;28;20160;-71
2022/07/17 06:39:57;;;;;;;124.70;112.32;;;13.70;96.30;;;;;;5048872;28;20132;-72
2022/07/17 06:42:24;;;;;;;125.78;113.38;;;13.70;96.20;;;;;;5048952;28;20057;-72
2022/07/17 06:44:51;;;;;;;124.47;112.20;;;13.80;95.90;;;;;;5048918;28;20133;-71
2022/07/17 06:47:19;;;;;;;128.30;115.68;;;13.80;96.20;;;;;;5046166;28;20045;-71
2022/07/17 06:49:46;;;;;;;125.93;113.45;;;13.90;96.20;;;;;;5046374;28;20045;-72
2022/07/17 06:52:13;;;;;;;123.57;111.78;;;13.90;96.00;;;;;;5049490;28;20056;-71
2022/07/17 06:54:40;;;;;;;124.75;112.35;;;14.00;95.90;;;;;;5050008;28;20113;-71
2022/07/17 06:57:07;;;;;;;129.02;116.50;;;14.10;95.60;;;;;;5048805;28;20057;-72
2022/07/17 06:59:35;;;;;;;124.25;112.10;;;14.10;95.20;;;;;;5047917;28;20061;-72
2022/07/17 07:02:02;;;;;;;126.47;113.95;;;14.20;94.70;;;;;;5046246;28;20048;-71
2022/07/17 07:04:30;;;;;;;125.25;113.15;;;14.20;94.50;;;;;;5044679;28;20194;-72
2022/07/17 07:06:57;;;;;;;127.78;115.47;;;14.30;94.50;;;;;;5044510;28;20476;-71
2022/07/17 07:09:25;;;;;;;125.70;113.75;;;14.30;94.70;;;;;;5045525;28;20060;-71
2022/07/17 07:11:52;;;;;;;124.95;112.72;;;14.40;94.80;;;;;;5046902;28;20059;-72
2022/07/17 07:14:19;;;;;;;125.90;113.45;;;14.50;94.60;;;;;;5046145;28;20050;-71
2022/07/17 07:16:46;;;;;;;124.13;112.18;;;14.60;94.60;;;;;;5046272;28;20083;-71
2022/07/17 07:19:13;;;;;;;124.00;112.00;;;14.60;94.60;;;;;;5052217;28;20046;-71
2022/07/17 07:21:41;;;;;;;122.95;111.15;;;14.80;94.40;;;;;;5053373;28;20156;-70
2022/07/17 07:24:08;;;;;;;122.32;110.55;;;14.80;94.00;;;;;;5047232;28;20085;-71
2022/07/17 07:26:35;;;;;;;122.32;110.43;;;14.90;93.80;;;;;;5049209;28;20060;-71
2022/07/17 07:29:02;;;;;;;125.55;113.35;;;15.00;93.50;;;;;;5065175;28;20045;-71
2022/07/17 07:31:29;;;;;;;125.88;113.80;;;15.10;93.40;;;;;;5050925;28;20092;-71
2022/07/17 07:33:56;;;;;;;124.85;112.78;;;15.10;93.20;;;;;;5048205;28;20049;-71
2022/07/17 07:36:23;;;;;;;126.10;114.07;;;15.20;93.10;;;;;;5049666;28;20137;-71
2022/07/17 07:38:51;;;;;;;128.07;115.68;;;15.20;93.20;;;;;;5049527;28;20125;-71
2022/07/17 07:41:18;;;;;;;125.63;113.65;;;15.30;93.30;;;;;;5044054;28;20041;-71
2022/07/17 07:43:45;;;;;;;126.45;114.35;;;15.30;93.20;;;;;;5043633;28;20488;-72
2022/07/17 07:46:12;;;;;;;127.57;114.75;;;15.40;92.90;;;;;;5047922;28;20057;-71
2022/07/17 07:48:39;;;;;;;128.30;116.00;;;15.50;93.20;;;;;;5051792;28;20045;-71
2022/07/17 07:51:06;;;;;;;127.43;115.22;;;15.60;93.10;;;;;;5052031;28;20084;-71
2022/07/17 07:53:33;;;;;;;126.25;114.22;;;15.60;93.00;;;;;;5048711;28;20053;-71
2022/07/17 07:56:01;;;;;;;127.68;115.28;;;15.70;92.60;;;;;;5050641;28;20045;-71
2022/07/17 07:58:28;;;;;;;128.80;116.03;;;15.70;92.40;;;;;;5050599;28;20049;-71
2022/07/17 08:00:55;;;;;;;126.55;114.45;;;15.80;92.20;;;;;;5033464;28;20050;-71
2022/07/17 08:03:22;;;;;;;128.45;116.50;;;15.80;92.00;;;;;;5049642;28;20054;-71
2022/07/17 08:05:48;;;;;;;137.27;124.45;;;15.90;92.20;;;;;;5047744;28;20895;-71
2022/07/17 08:08:16;;;;;;;129.75;117.72;;;15.90;92.30;;;;;;5050154;28;20140;-71
2022/07/17 08:10:43;;;;;;;128.80;116.50;;;16.00;92.30;;;;;;5050406;28;20427;-71
2022/07/17 08:13:11;;;;;;;128.68;116.25;;;16.00;92.30;;;;;;5051547;28;20049;-71
2022/07/17 08:15:38;;;;;;;128.13;115.90;;;16.10;92.40;;;;;;5066446;28;20053;-72
2022/07/17 08:18:05;;;;;;;127.90;115.93;;;16.10;92.30;;;;;;5050023;28;20057;-71
2022/07/17 08:20:33;;;;;;;130.00;117.78;;;16.20;92.10;;;;;;5051793;28;20053;-71
2022/07/17 08:23:00;;;;;;;129.00;116.75;;;16.30;91.70;;;;;;5049429;28;20046;-70
2022/07/17 08:25:26;;;;;;;127.07;115.22;;;16.30;91.50;;;;;;5050477;28;20057;-71
2022/07/17 08:27:53;;;;;;;129.95;117.85;;;16.40;91.60;;;;;;5050774;28;20108;-71
2022/07/17 08:30:22;;;;;;;127.20;115.30;;;16.40;91.00;;;;;;5051592;28;20051;-71
2022/07/17 08:32:49;;;;;;;127.30;115.25;;;16.50;91.10;;;;;;5064783;28;20542;-71
2022/07/17 08:35:16;;;;;;;128.02;116.18;;;16.50;91.30;;;;;;5051478;28;20049;-71
2022/07/17 08:37:45;;;;;;;128.63;116.68;;;16.50;91.30;;;;;;5049977;28;20050;-71
2022/07/17 08:40:17;;;;;;;127.80;116.00;;;16.60;91.50;;;;;;5048912;28;20092;-71
2022/07/17 08:42:44;;;;;;;130.15;118.15;;;16.60;91.20;;;;;;5050917;28;20057;-71
2022/07/17 08:45:11;;;;;;;131.95;119.85;;;16.70;90.90;;;;;;5066412;28;20426;-71
2022/07/17 08:47:40;;;;;;;130.40;118.70;;;16.70;90.80;;;;;;5050822;28;20502;-71
2022/07/17 08:50:09;;;;;;;130.27;118.50;;;16.80;90.80;;;;;;5051328;28;20400;-71
2022/07/17 08:52:38;;;;;;;130.10;118.15;;;16.90;90.50;;;;;;5051269;28;20054;-71
2022/07/17 08:55:08;;;;;;;131.35;119.28;;;16.90;90.40;;;;;;5049665;28;20053;-72
2022/07/17 08:57:38;;;;;;;134.93;122.63;;;16.90;90.70;;;;;;5049472;28;20053;-71
2022/07/17 09:00:06;;;;;;;131.13;118.80;;;17.00;90.50;;;;;;5066987;28;20057;-71
2022/07/17 09:02:33;;;;;;;131.70;119.57;;;17.10;90.40;;;;;;5049722;28;20046;-72
2022/07/17 09:05:01;;;;;;;131.93;119.82;;;17.10;90.20;;;;;;5051157;28;20057;-71
2022/07/17 09:07:28;;;;;;;132.40;120.32;;;17.10;90.10;;;;;;5048166;28;20107;-71
2022/07/17 09:09:55;;;;;;;133.55;121.32;;;17.20;89.70;;;;;;5054351;28;20600;-71
2022/07/17 09:12:26;;;;;;;135.38;123.07;;;17.20;89.50;;;;;;5052330;28;20051;-71
2022/07/17 09:14:53;;;;;;;134.10;121.90;;;17.30;88.80;;;;;;5053287;28;20050;-71
2022/07/17 09:17:20;;;;;;;135.90;123.75;;;17.40;88.40;;;;;;5054277;28;20049;-71
2022/07/17 09:19:47;;;;;;;136.65;124.07;;;17.40;87.60;;;;;;5054648;28;20111;-71
2022/07/17 09:22:18;;;;;;;133.52;121.65;;;17.50;87.60;;;;;;5051959;28;20059;-71
2022/07/17 09:24:48;;;;;;;134.05;122.13;;;17.60;87.20;;;;;;5052272;28;20053;-71
2022/07/17 09:27:28;;;;;;;137.50;125.25;;;17.60;87.10;;;;;;5051179;28;20046;-71
2022/07/17 09:29:57;;;;;;;136.57;124.53;;;17.60;87.00;;;;;;5067574;28;20079;-71
2022/07/17 09:32:25;;;;;;;133.30;121.40;;;17.70;87.30;;;;;;5048915;28;20058;-71
2022/07/17 09:34:55;;;;;;;138.90;126.00;;;17.70;87.60;;;;;;5051784;28;20053;-71
2022/07/17 09:37:25;;;;;;;139.20;124.45;;;17.80;88.20;;;;;;5049820;28;20052;-71
2022/07/17 09:39:53;;;;;;;135.13;122.35;;;17.90;88.40;;;;;;5054772;28;20145;-72
2022/07/17 09:42:26;;;;;;;131.95;120.30;;;18.00;88.40;;;;;;5053133;28;20053;-72
2022/07/17 09:44:58;;;;;;;135.75;123.85;;;18.10;87.60;;;;;;5052384;28;20140;-71
2022/07/17 09:47:25;;;;;;;133.02;121.28;;;18.20;87.60;;;;;;5051318;28;20136;-71
2022/07/17 09:49:54;;;;;;;133.35;121.65;;;18.30;87.20;;;;;;5053264;28;20046;-71
2022/07/17 09:52:24;;;;;;;134.27;122.45;;;18.40;86.00;;;;;;5053218;28;20042;-71
2022/07/17 09:54:53;;;;;;;133.93;122.28;;;18.40;85.90;;;;;;5052983;28;20058;-71
2022/07/17 09:57:21;;;;;;;132.63;121.03;;;18.60;86.20;;;;;;5054148;28;20076;-71
2022/07/17 09:59:49;;;;;;;133.73;122.13;;;18.60;86.10;;;;;;5054579;28;20056;-71
2022/07/17 10:02:16;;;;;;;132.00;120.60;;;18.70;85.60;;;;;;5053615;28;20140;-71
2022/07/17 10:04:43;;;;;;;133.52;122.00;;;18.80;84.70;;;;;;5052809;28;20059;-71
2022/07/17 10:07:10;;;;;;;135.93;124.38;;;18.90;83.60;;;;;;5053090;28;20511;-72
2022/07/17 10:09:39;;;;;;;136.63;125.00;;;19.00;83.40;;;;;;5050167;28;20058;-71
2022/07/17 10:12:08;;;;;;;136.93;125.25;;;19.10;82.60;;;;;;5048261;28;20507;-71
2022/07/17 10:14:38;;;;;;;137.80;126.10;;;19.10;82.90;;;;;;5046995;28;20446;-71
2022/07/17 10:17:09;;;;;;;136.82;125.03;;;19.20;83.30;;;;;;5051497;28;20406;-71
2022/07/17 10:19:47;;;;;;;136.73;125.13;;;19.30;83.40;;;;;;5052149;28;20392;-71
2022/07/17 10:22:14;;;;;;;135.77;123.97;;;19.40;83.40;;;;;;5052371;28;20073;-71
2022/07/17 10:24:53;;;;;;;138.23;126.63;;;19.40;83.40;;;;;;5052776;28;20056;-72
2022/07/17 10:27:22;;;;;;;140.15;128.15;;;19.50;82.40;;;;;;5035771;28;20053;-70
2022/07/17 10:30:01;;;;;;;140.10;128.48;;;19.60;82.50;;;;;;5043575;28;20533;-71
2022/07/17 10:32:28;;;;;;;137.55;125.72;;;19.70;83.00;;;;;;5045210;28;20088;-71
2022/07/17 10:35:00;;;;;;;140.30;128.55;;;19.80;83.00;;;;;;5045575;28;20152;-71
2022/07/17 10:37:31;;;;;;;141.07;129.68;;;19.80;82.70;;;;;;5048349;28;20053;-72
2022/07/17 10:40:04;;;;;;;140.70;129.05;;;19.90;82.70;;;;;;5046796;28;20132;-71
2022/07/17 10:42:58;;;;;;;140.25;128.70;;;20.00;82.30;;;;;;5046051;28;20511;-72
2022/07/17 10:45:33;;;;;;;139.38;127.95;;;20.10;82.60;;;;;;5047825;28;20140;-72
2022/07/17 10:48:02;;;;;;;140.93;129.45;;;20.10;82.30;;;;;;5052273;28;20053;-72
2022/07/17 10:50:35;;;;;;;142.30;130.43;;;20.20;81.90;;;;;;5050895;28;20794;-72
2022/07/17 10:53:08;;;;;;;139.75;128.38;;;20.30;81.50;;;;;;5052508;28;20508;-71
2022/07/17 10:55:37;;;;;;;140.18;128.65;;;20.40;80.80;;;;;;5050835;28;20488;-71
2022/07/17 10:58:14;;;;;;;142.65;131.05;;;20.50;81.30;;;;;;5052061;28;20140;-70
2022/07/17 11:00:41;;;;;;;139.00;127.68;;;20.50;81.10;;;;;;5053754;28;20057;-71
2022/07/17 11:03:12;;;;;;;141.85;130.48;;;20.60;81.20;;;;;;5051905;28;20050;-71
2022/07/17 11:05:39;;;;;;;142.95;131.65;;;20.70;81.00;;;;;;5053093;28;20063;-71
2022/07/17 11:08:09;;;;;;;143.73;132.35;;;20.80;80.80;;;;;;5050551;28;20061;-71
2022/07/17 11:10:38;;;;;;;142.45;130.98;;;20.80;80.60;;;;;;5048802;28;20543;-71
2022/07/17 11:13:10;;;;;;;143.43;131.90;;;20.90;80.00;;;;;;5045875;28;20042;-71
2022/07/17 11:15:41;;;;;;;143.07;131.63;;;21.00;78.40;;;;;;5048246;28;20136;-71
2022/07/17 11:18:13;;;;;;;142.88;131.38;;;21.10;78.10;;;;;;5066293;28;20112;-71
2022/07/17 11:20:48;;;;;;;144.70;133.10;;;21.20;77.80;;;;;;5050048;28;20056;-72
2022/07/17 11:23:15;;;;;;;144.95;133.43;;;21.30;76.40;;;;;;5065257;28;20188;-71
2022/07/17 11:25:58;;;;;;;143.20;131.65;;;21.40;76.90;;;;;;5048503;28;20431;-71
2022/07/17 11:28:37;;;;;;;143.48;131.98;;;21.50;76.10;;;;;;5047485;28;20048;-72
2022/07/17 11:31:15;;;;;;;142.07;130.68;;;21.50;76.30;;;;;;5046596;28;20049;-72
2022/07/17 11:33:51;;;;;;;146.25;133.00;;;21.60;75.90;;;;;;5047298;28;20050;-72
2022/07/17 11:36:23;;;;;;;146.68;134.88;;;21.70;75.70;;;;;;5046754;28;20511;-72
2022/07/17 11:38:50;;;;;;;146.45;134.95;;;21.90;74.90;;;;;;5063275;28;20538;-72
2022/07/17 11:41:19;;;;;;;145.48;134.10;;;21.90;74.20;;;;;;5045220;28;20050;-71
2022/07/17 11:43:47;;;;;;;144.45;133.35;;;22.00;73.70;;;;;;5049187;28;20060;-72
2022/07/17 11:46:15;;;;;;;146.50;135.07;;;22.10;74.40;;;;;;5049753;28;20045;-71
2022/07/17 11:48:43;;;;;;;144.85;133.45;;;22.10;73.00;;;;;;5048855;28;20060;-71
2022/07/17 11:51:10;;;;;;;147.77;136.27;;;22.20;73.60;;;;;;5064927;28;20136;-71
2022/07/17 11:53:40;;;;;;;145.93;134.48;;;22.20;74.20;;;;;;5050299;28;20056;-71
2022/07/17 11:56:09;;;;;;;146.90;135.45;;;22.30;74.10;;;;;;5066918;28;20051;-71
2022/07/17 11:58:45;;;;;;;144.80;133.70;;;22.40;74.30;;;;;;5027864;28;20074;-72
2022/07/17 12:01:12;;;;;;;144.88;133.65;;;22.40;75.50;;;;;;5048284;28;20128;-71
2022/07/17 12:03:39;;;;;;;143.23;131.88;;;22.50;74.90;;;;;;5048015;28;20163;-71
2022/07/17 12:06:06;;;;;;;145.63;134.20;;;22.60;74.10;;;;;;5050354;28;20054;-72
2022/07/17 12:08:33;;;;;;;147.75;136.23;;;22.70;74.30;;;;;;5064797;28;20045;-71
2022/07/17 12:11:06;;;;;;;145.50;134.13;;;22.80;73.30;;;;;;5047876;28;20509;-71
2022/07/17 12:13:47;;;;;;;144.07;132.07;;;22.90;73.00;;;;;;5052922;28;20491;-70
2022/07/17 12:16:28;;;;;;;144.18;133.10;;;23.00;73.00;;;;;;5047284;28;20503;-71
2022/07/17 12:19:03;;;;;;;146.20;135.00;;;23.10;74.80;;;;;;5043980;28;20104;-71